createdAt,value
2019-01-30T00:03:22.959Z,3.50
2019-01-30T00:06:02.803Z,3.40
2019-01-30T00:08:41.990Z,3.50
2019-01-30T00:11:21.849Z,3.40
2019-01-30T00:14:01.061Z,3.20
2019-01-30T00:20:05.705Z,3.00
2019-01-30T00:22:44.736Z,2.70
2019-01-30T00:25:24.145Z,2.90
2019-01-30T00:28:04.024Z,3.00
2019-01-30T00:30:43.099Z,3.10
2019-01-30T00:33:22.235Z,3.20
2019-01-30T00:36:02.318Z,3.20
2019-01-30T00:38:41.455Z,3.10
2019-01-30T00:41:20.677Z,3.10
2019-01-30T00:44:00.680Z,3.10
2019-01-30T00:46:40.621Z,3.10
2019-01-30T00:49:20.670Z,3.10
2019-01-30T00:52:00.755Z,3.10
2019-01-30T00:54:40.744Z,3.10
2019-01-30T00:57:19.883Z,3.10
2019-01-30T00:59:59.891Z,3.30
2019-01-30T01:02:39.114Z,3.30
2019-01-30T01:05:18.219Z,3.20
2019-01-30T01:07:57.317Z,3.10
2019-01-30T01:10:36.456Z,3.10
2019-01-30T01:13:15.550Z,3.10
2019-01-30T01:15:54.783Z,2.90
2019-01-30T01:18:33.992Z,2.90
2019-01-30T01:21:13.367Z,2.90
2019-01-30T01:23:53.344Z,2.80
2019-01-30T01:26:32.399Z,2.70
2019-01-30T01:29:11.551Z,2.50
2019-01-30T01:31:50.743Z,2.50
2019-01-30T01:34:29.953Z,2.50
2019-01-30T01:37:09.235Z,2.50
2019-01-30T01:39:50.924Z,2.50
2019-01-30T01:42:30.576Z,2.70
2019-01-30T01:45:10.528Z,2.70
2019-01-30T01:47:53.489Z,2.70
2019-01-30T01:50:32.623Z,2.80
2019-01-30T01:53:11.917Z,2.70
2019-01-30T01:59:14.784Z,2.70
2019-01-30T02:01:54.331Z,2.70
2019-01-30T02:04:33.567Z,2.70
2019-01-30T02:07:13.436Z,2.60
2019-01-30T02:09:53.557Z,2.60
2019-01-30T02:12:32.880Z,2.70
2019-01-30T02:15:11.964Z,2.70
2019-01-30T02:17:51.117Z,2.70
2019-01-30T02:20:30.228Z,2.70
2019-01-30T02:23:10.227Z,2.60
2019-01-30T02:25:50.365Z,2.70
2019-01-30T02:28:30.394Z,2.70
2019-01-30T02:31:09.502Z,2.50
2019-01-30T02:33:48.597Z,2.60
2019-01-30T02:36:28.593Z,2.60
2019-01-30T02:39:07.764Z,2.60
2019-01-30T02:41:46.828Z,2.60
2019-01-30T02:44:26.363Z,2.60
2019-01-30T02:47:05.553Z,2.50
2019-01-30T02:49:45.495Z,2.50
2019-01-30T02:52:24.893Z,2.40
2019-01-30T02:55:05.127Z,2.40
2019-01-30T02:57:44.221Z,2.40
2019-01-30T03:00:23.303Z,2.30
2019-01-30T03:03:02.573Z,2.20
2019-01-30T03:05:42.464Z,2.30
2019-01-30T03:08:21.548Z,2.40
2019-01-30T03:11:01.610Z,2.20
2019-01-30T03:13:41.652Z,2.10
2019-01-30T03:16:21.572Z,2.10
2019-01-30T03:19:00.817Z,2.20
2019-01-30T03:21:40.835Z,2.10
2019-01-30T03:24:20.893Z,1.90
2019-01-30T03:27:00.837Z,1.90
2019-01-30T03:29:39.980Z,1.90
2019-01-30T03:32:19.082Z,1.90
2019-01-30T03:34:59.177Z,2.00
2019-01-30T03:37:39.319Z,2.00
2019-01-30T03:40:19.221Z,1.80
2019-01-30T03:42:59.205Z,1.90
2019-01-30T03:45:39.254Z,1.90
2019-01-30T03:48:19.305Z,2.00
2019-01-30T03:50:59.373Z,2.00
2019-01-30T03:53:38.445Z,2.00
2019-01-30T03:56:17.681Z,2.00
2019-01-30T03:58:56.849Z,2.00
2019-01-30T04:01:36.111Z,2.00
2019-01-30T04:04:15.211Z,2.10
2019-01-30T04:06:55.198Z,2.10
2019-01-30T04:09:35.252Z,2.10
2019-01-30T04:12:14.495Z,2.20
2019-01-30T04:14:54.495Z,2.20
2019-01-30T04:17:34.440Z,2.30
2019-01-30T04:20:14.465Z,2.30
2019-01-30T04:22:54.367Z,2.30
2019-01-30T04:25:36.356Z,2.20
2019-01-30T04:28:15.544Z,2.10
2019-01-30T04:30:55.305Z,2.20
2019-01-30T04:33:35.339Z,2.10
2019-01-30T04:36:15.498Z,1.90
2019-01-30T04:38:55.437Z,1.90
2019-01-30T04:41:35.492Z,2.00
2019-01-30T04:44:14.712Z,2.00
2019-01-30T04:46:54.122Z,2.00
2019-01-30T04:49:34.065Z,2.00
2019-01-30T04:52:13.511Z,2.00
2019-01-30T04:54:53.413Z,2.00
2019-01-30T04:57:33.363Z,2.10
2019-01-30T05:00:13.396Z,2.00
2019-01-30T05:02:53.457Z,2.10
2019-01-30T05:05:33.633Z,2.20
2019-01-30T05:08:13.766Z,2.10
2019-01-30T05:10:53.746Z,2.00
2019-01-30T05:13:33.749Z,2.10
2019-01-30T05:16:13.735Z,2.10
2019-01-30T05:18:52.909Z,2.10
2019-01-30T05:21:32.881Z,2.00
2019-01-30T05:24:16.408Z,1.90
2019-01-30T05:26:55.834Z,1.90
2019-01-30T05:29:34.948Z,1.90
2019-01-30T05:32:14.229Z,1.90
2019-01-30T05:34:54.434Z,1.90
2019-01-30T05:37:33.493Z,2.00
2019-01-30T05:40:12.629Z,1.70
2019-01-30T05:42:51.766Z,1.80
2019-01-30T05:45:30.932Z,1.80
2019-01-30T05:51:34.732Z,1.90
2019-01-30T05:54:14.919Z,1.80
2019-01-30T05:56:55.027Z,1.70
2019-01-30T05:59:35.220Z,1.70
2019-01-30T06:02:15.847Z,1.60
2019-01-30T06:04:55.500Z,1.60
2019-01-30T06:07:34.615Z,1.70
2019-01-30T06:10:13.743Z,1.60
2019-01-30T06:15:36.043Z,1.70
2019-01-30T06:18:19.633Z,1.70
2019-01-30T06:20:59.274Z,1.70
2019-01-30T06:23:39.339Z,1.60
2019-01-30T06:26:18.501Z,1.70
2019-01-30T06:28:58.839Z,1.60
2019-01-30T06:31:37.992Z,1.90
2019-01-30T06:34:17.912Z,1.90
2019-01-30T06:36:57.935Z,1.80
2019-01-30T06:39:40.933Z,1.70
2019-01-30T06:45:03.205Z,1.80
2019-01-30T06:47:42.429Z,1.60
2019-01-30T06:50:22.472Z,1.80
2019-01-30T06:53:06.267Z,1.80
2019-01-30T06:55:50.307Z,1.80
2019-01-30T06:58:31.471Z,1.80
2019-01-30T07:01:11.608Z,1.70
2019-01-30T07:03:50.749Z,1.70
2019-01-30T07:06:29.839Z,1.70
2019-01-30T07:09:09.012Z,1.60
2019-01-30T07:11:48.173Z,1.60
2019-01-30T07:14:27.343Z,1.60
2019-01-30T07:17:07.329Z,1.60
2019-01-30T07:19:46.464Z,1.60
2019-01-30T07:22:25.710Z,1.50
2019-01-30T07:25:05.783Z,1.40
2019-01-30T07:28:04.672Z,1.50
2019-01-30T07:30:44.926Z,1.60
2019-01-30T07:33:24.484Z,1.60
2019-01-30T07:36:04.150Z,1.50
2019-01-30T07:38:43.420Z,1.40
2019-01-30T07:41:23.435Z,1.30
2019-01-30T07:44:03.420Z,1.30
2019-01-30T07:46:43.574Z,1.50
2019-01-30T07:49:23.668Z,1.60
2019-01-30T07:52:02.902Z,1.50
2019-01-30T07:54:42.911Z,1.60
2019-01-30T07:57:22.951Z,1.70
2019-01-30T08:00:02.177Z,2.00
2019-01-30T08:02:52.654Z,2.00
2019-01-30T08:05:23.519Z,2.00
2019-01-30T08:08:03.398Z,2.10
2019-01-30T08:10:43.485Z,2.10
2019-01-30T08:13:23.527Z,2.10
2019-01-30T08:16:03.480Z,2.10
2019-01-30T08:18:43.558Z,2.20
2019-01-30T08:21:22.706Z,2.20
2019-01-30T08:24:02.099Z,2.00
2019-01-30T08:26:42.665Z,2.10
2019-01-30T08:29:22.638Z,2.10
2019-01-30T08:32:02.590Z,2.10
2019-01-30T08:34:42.571Z,2.20
2019-01-30T08:37:21.689Z,2.30
2019-01-30T08:40:00.972Z,2.30
2019-01-30T08:42:40.155Z,2.30
2019-01-30T08:48:58.792Z,2.30
2019-01-30T08:51:38.680Z,2.40
2019-01-30T08:54:18.731Z,2.30
2019-01-30T08:56:58.589Z,2.30
2019-01-30T08:59:39.722Z,2.30
2019-01-30T09:09:08.994Z,2.30
2019-01-30T09:11:48.319Z,2.40
2019-01-30T09:14:28.244Z,2.50
2019-01-30T09:17:08.752Z,2.50
2019-01-30T09:19:48.311Z,2.60
2019-01-30T09:22:28.419Z,2.60
2019-01-30T09:25:08.292Z,2.60
2019-01-30T09:30:52.367Z,2.80
2019-01-30T09:33:33.198Z,2.70
2019-01-30T09:36:12.432Z,2.70
2019-01-30T09:38:51.663Z,2.60
2019-01-30T09:41:30.860Z,2.50
2019-01-30T09:44:10.986Z,2.60
2019-01-30T09:46:50.872Z,2.50
2019-01-30T09:49:30.142Z,2.50
2019-01-30T09:52:10.185Z,2.50
2019-01-30T09:54:49.369Z,2.50
2019-01-30T09:57:29.353Z,2.50
2019-01-30T10:00:08.629Z,2.50
2019-01-30T10:02:47.780Z,2.40
2019-01-30T10:05:27.742Z,2.50
2019-01-30T10:08:07.611Z,2.40
2019-01-30T10:10:47.688Z,2.50
2019-01-30T10:13:26.911Z,2.50
2019-01-30T10:16:06.137Z,2.60
2019-01-30T10:18:45.349Z,2.60
2019-01-30T10:21:24.751Z,2.60
2019-01-30T10:24:04.687Z,2.60
2019-01-30T10:26:44.691Z,2.60
2019-01-30T10:29:23.797Z,2.50
2019-01-30T10:32:03.827Z,2.50
2019-01-30T10:34:43.837Z,2.60
2019-01-30T10:37:22.867Z,2.60
2019-01-30T10:40:02.027Z,2.50
2019-01-30T10:42:42.095Z,2.50
2019-01-30T10:45:22.137Z,2.60
2019-01-30T10:48:02.289Z,2.60
2019-01-30T10:50:41.796Z,2.80
2019-01-30T10:56:47.419Z,2.80
2019-01-30T10:59:27.365Z,2.90
2019-01-30T11:05:46.811Z,3.00
2019-01-30T11:08:26.840Z,2.90
2019-01-30T11:11:07.859Z,2.80
2019-01-30T11:13:47.502Z,2.80
2019-01-30T11:16:27.090Z,2.80
2019-01-30T11:19:07.079Z,2.70
2019-01-30T11:21:46.388Z,2.80
2019-01-30T11:27:30.637Z,2.90
2019-01-30T11:30:09.688Z,2.90
2019-01-30T11:32:48.747Z,3.00
2019-01-30T11:35:28.843Z,2.90
2019-01-30T11:38:08.958Z,3.00
2019-01-30T11:40:48.969Z,2.90
2019-01-30T11:43:28.994Z,2.90
2019-01-30T11:46:09.018Z,2.90
2019-01-30T11:48:56.455Z,3.00
2019-01-30T11:51:34.079Z,3.00
2019-01-30T11:54:13.323Z,3.00
2019-01-30T11:56:52.549Z,3.00
2019-01-30T11:59:32.375Z,3.00
2019-01-30T12:02:11.577Z,3.10
2019-01-30T12:04:51.678Z,3.20
2019-01-30T12:07:30.891Z,3.20
2019-01-30T12:10:10.071Z,3.20
2019-01-30T12:12:53.500Z,3.20
2019-01-30T12:15:33.247Z,3.10
2019-01-30T12:18:12.540Z,3.20
2019-01-30T12:20:52.105Z,3.10
2019-01-30T12:23:31.667Z,3.20
2019-01-30T12:26:11.708Z,3.10
2019-01-30T12:28:51.703Z,3.20
2019-01-30T12:31:30.864Z,3.10
2019-01-30T12:34:10.061Z,3.20
2019-01-30T12:36:49.313Z,3.10
2019-01-30T12:39:29.237Z,3.10
2019-01-30T12:42:09.227Z,3.20
2019-01-30T12:44:48.485Z,3.30
2019-01-30T12:47:28.557Z,3.30
2019-01-30T12:50:07.832Z,3.30
2019-01-30T12:52:46.875Z,3.20
2019-01-30T12:55:26.087Z,3.30
2019-01-30T12:58:05.254Z,3.20
2019-01-30T13:00:45.346Z,3.40
2019-01-30T13:03:25.253Z,3.30
2019-01-30T13:06:04.374Z,3.30
2019-01-30T13:08:44.389Z,3.30
2019-01-30T13:11:24.413Z,3.40
2019-01-30T13:14:03.585Z,3.40
2019-01-30T13:16:43.664Z,3.40
2019-01-30T13:19:23.785Z,3.40
2019-01-30T13:22:02.884Z,3.40
2019-01-30T13:24:42.912Z,3.50
2019-01-30T13:27:23.040Z,3.50
2019-01-30T13:30:03.080Z,3.60
2019-01-30T13:32:43.241Z,3.50
2019-01-30T13:35:22.394Z,3.60
2019-01-30T13:38:02.514Z,3.60
2019-01-30T13:40:41.641Z,3.80
2019-01-30T13:43:20.820Z,3.70
2019-01-30T13:46:05.415Z,3.60
2019-01-30T13:52:19.823Z,3.60
2019-01-30T13:55:00.010Z,3.50
2019-01-30T13:57:43.584Z,3.60
2019-01-30T14:00:22.967Z,3.60
2019-01-30T14:06:11.192Z,3.60
2019-01-30T14:11:32.446Z,3.60
2019-01-30T14:14:12.423Z,3.60
2019-01-30T14:16:52.505Z,3.50
2019-01-30T14:19:31.817Z,3.50
2019-01-30T14:22:11.670Z,3.50
2019-01-30T14:24:51.668Z,3.40
2019-01-30T14:27:30.893Z,3.40
2019-01-30T14:30:10.232Z,3.40
2019-01-30T14:32:50.252Z,3.50
2019-01-30T14:35:29.319Z,3.40
2019-01-30T14:38:08.557Z,3.40
2019-01-30T14:40:48.594Z,3.30
2019-01-30T14:43:27.951Z,3.40
2019-01-30T14:46:07.782Z,3.40
2019-01-30T14:51:56.194Z,3.40
2019-01-30T14:54:36.125Z,3.40
2019-01-30T14:57:16.236Z,3.40
2019-01-30T14:59:56.410Z,3.30
2019-01-30T15:02:36.419Z,3.30
2019-01-30T15:05:22.479Z,3.30
2019-01-30T15:07:57.666Z,3.30
2019-01-30T15:10:36.878Z,3.30
2019-01-30T15:13:16.862Z,3.20
2019-01-30T15:15:56.877Z,3.10
2019-01-30T15:18:36.976Z,3.20
2019-01-30T15:21:16.969Z,3.30
2019-01-30T15:23:57.054Z,3.30
2019-01-30T15:26:36.439Z,3.30
2019-01-30T15:29:16.498Z,3.40
2019-01-30T15:31:55.803Z,3.30
2019-01-30T15:34:35.959Z,3.30
2019-01-30T15:37:15.818Z,3.40
2019-01-30T15:39:55.136Z,3.20
2019-01-30T15:42:34.453Z,3.10
2019-01-30T15:45:14.436Z,3.00
2019-01-30T15:47:54.384Z,2.90
2019-01-30T15:50:33.619Z,2.90
2019-01-30T15:53:12.733Z,2.90
2019-01-30T15:55:51.785Z,3.00
2019-01-30T15:58:30.970Z,3.00
2019-01-30T16:01:11.000Z,2.90
2019-01-30T16:03:50.282Z,2.90
2019-01-30T16:06:30.431Z,2.70
2019-01-30T16:09:09.540Z,2.80
2019-01-30T16:11:50.547Z,2.70
2019-01-30T16:14:29.792Z,2.70
2019-01-30T16:17:08.870Z,2.40
2019-01-30T16:19:49.408Z,2.40
2019-01-30T16:22:29.038Z,2.30
2019-01-30T16:25:09.599Z,2.40
2019-01-30T16:27:49.168Z,2.40
2019-01-30T16:30:29.216Z,2.30
2019-01-30T16:33:08.331Z,2.20
2019-01-30T16:35:55.809Z,2.40
2019-01-30T16:38:29.520Z,2.40
2019-01-30T16:41:08.771Z,2.40
2019-01-30T16:43:48.900Z,2.50
2019-01-30T16:46:28.960Z,2.60
2019-01-30T16:49:08.954Z,2.70
2019-01-30T16:51:48.085Z,2.70
2019-01-30T16:54:27.186Z,2.60
2019-01-30T16:57:06.441Z,2.50
2019-01-30T16:59:46.502Z,2.50
2019-01-30T17:05:51.817Z,2.60
2019-01-30T17:08:31.802Z,2.60
2019-01-30T17:11:10.942Z,2.60
2019-01-30T17:13:50.056Z,2.60
2019-01-30T17:16:30.061Z,2.40
2019-01-30T17:19:09.279Z,2.30
2019-01-30T17:21:48.535Z,2.40
2019-01-30T17:24:28.058Z,2.50
2019-01-30T17:30:27.440Z,2.40
2019-01-30T17:33:07.374Z,2.50
2019-01-30T17:35:47.427Z,2.50
2019-01-30T17:38:27.588Z,2.60
2019-01-30T17:41:07.564Z,2.50
2019-01-30T17:43:46.662Z,2.40
2019-01-30T17:46:28.011Z,2.50
2019-01-30T17:49:07.841Z,2.40
2019-01-30T17:51:47.818Z,2.50
2019-01-30T17:54:27.970Z,2.40
2019-01-30T17:57:07.965Z,2.20
2019-01-30T17:59:47.886Z,2.10
2019-01-30T18:02:27.207Z,2.20
2019-01-30T18:05:11.155Z,2.30
2019-01-30T18:07:50.301Z,2.00
2019-01-30T18:10:30.511Z,2.00
2019-01-30T18:13:10.577Z,2.20
2019-01-30T18:15:49.671Z,2.10
2019-01-30T18:18:29.813Z,2.10
2019-01-30T18:21:09.106Z,2.00
2019-01-30T18:23:48.930Z,2.10
2019-01-30T18:26:28.987Z,2.00
2019-01-30T18:29:09.350Z,2.10
2019-01-30T18:31:49.210Z,1.90
2019-01-30T18:34:28.310Z,1.80
2019-01-30T18:37:07.565Z,1.70
2019-01-30T18:39:49.594Z,1.80
2019-01-30T18:42:28.104Z,1.80
2019-01-30T18:45:08.247Z,1.90
2019-01-30T18:47:48.328Z,1.70
2019-01-30T18:50:28.439Z,1.60
2019-01-30T18:53:08.453Z,1.50
2019-01-30T18:55:48.388Z,1.60
2019-01-30T18:58:27.694Z,1.60
2019-01-30T19:01:07.026Z,1.50
2019-01-30T19:03:47.148Z,1.50
2019-01-30T19:06:27.023Z,1.50
2019-01-30T19:09:07.305Z,1.40
2019-01-30T19:11:47.438Z,1.40
2019-01-30T19:14:26.681Z,1.50
2019-01-30T19:17:05.953Z,1.50
2019-01-30T19:19:46.017Z,1.70
2019-01-30T19:22:26.409Z,1.80
2019-01-30T19:25:06.395Z,1.90
2019-01-30T19:27:46.600Z,1.90
2019-01-30T19:30:26.859Z,1.80
2019-01-30T19:33:06.161Z,2.00
2019-01-30T19:35:46.159Z,1.90
2019-01-30T19:38:26.379Z,1.80
2019-01-30T19:41:05.663Z,1.90
2019-01-30T19:43:45.874Z,1.90
2019-01-30T19:46:25.861Z,2.00
2019-01-30T19:49:09.442Z,2.00
2019-01-30T19:51:49.035Z,2.00
2019-01-30T19:54:28.318Z,2.10
2019-01-30T19:57:08.414Z,2.20
2019-01-30T19:59:48.711Z,2.10
2019-01-30T20:02:29.062Z,2.20
2019-01-30T20:05:08.999Z,2.10
2019-01-30T20:07:49.105Z,2.10
2019-01-30T20:10:29.184Z,1.80
2019-01-30T20:13:09.502Z,1.80
2019-01-30T20:15:49.591Z,1.90
2019-01-30T20:18:29.731Z,1.90
2019-01-30T20:21:09.753Z,1.90
2019-01-30T20:23:49.817Z,1.90
2019-01-30T20:26:29.988Z,1.90
2019-01-30T20:29:09.257Z,2.00
2019-01-30T20:31:49.388Z,1.80
2019-01-30T20:34:29.453Z,1.90
2019-01-30T20:37:08.481Z,2.00
2019-01-30T20:39:47.722Z,2.00
2019-01-30T20:42:27.023Z,2.00
2019-01-30T20:45:06.688Z,1.90
2019-01-30T20:47:46.790Z,2.00
2019-01-30T20:50:26.607Z,1.90
2019-01-30T20:53:06.543Z,2.00
2019-01-30T20:55:46.676Z,2.10
2019-01-30T20:58:26.600Z,2.00
2019-01-30T21:01:06.336Z,2.10
2019-01-30T21:03:46.378Z,2.10
2019-01-30T21:06:25.472Z,2.10
2019-01-30T21:09:05.444Z,2.20
2019-01-30T21:11:44.646Z,2.30
2019-01-30T21:14:23.926Z,2.30
2019-01-30T21:17:03.967Z,2.40
2019-01-30T21:19:43.052Z,2.40
2019-01-30T21:22:22.955Z,2.50
2019-01-30T21:25:02.769Z,2.60
2019-01-30T21:27:41.958Z,2.60
2019-01-30T21:30:21.936Z,2.40
2019-01-30T21:33:01.136Z,2.60
2019-01-30T21:35:40.220Z,2.60
2019-01-30T21:38:20.185Z,2.70
2019-01-30T21:40:59.317Z,2.60
2019-01-30T21:43:38.568Z,2.70
2019-01-30T21:46:17.682Z,2.70
2019-01-30T21:48:56.839Z,2.80
2019-01-30T21:51:35.994Z,2.70
2019-01-30T21:54:15.930Z,2.40
2019-01-30T21:56:55.107Z,2.30
2019-01-30T21:59:34.582Z,2.30
2019-01-30T22:02:14.567Z,2.30
2019-01-30T22:04:54.614Z,2.40
2019-01-30T22:07:34.425Z,2.40
2019-01-30T22:10:13.501Z,2.40
2019-01-30T22:12:53.656Z,2.30
2019-01-30T22:15:33.083Z,2.20
2019-01-30T22:18:13.099Z,2.20
2019-01-30T22:20:52.309Z,2.20
2019-01-30T22:23:31.659Z,2.10
2019-01-30T22:26:11.579Z,2.10
2019-01-30T22:28:50.803Z,2.00
2019-01-30T22:31:30.022Z,1.80
2019-01-30T22:34:09.108Z,2.00
2019-01-30T22:36:49.130Z,2.00
2019-01-30T22:39:28.443Z,1.90
2019-01-30T22:42:08.234Z,1.90
2019-01-30T22:44:48.272Z,1.80
2019-01-30T22:47:27.344Z,1.80
2019-01-30T22:50:07.394Z,1.90
2019-01-30T22:52:46.612Z,1.80
2019-01-30T22:55:26.718Z,1.90
2019-01-30T22:58:06.739Z,1.80
2019-01-30T23:00:53.683Z,1.80
2019-01-30T23:03:32.922Z,1.80
2019-01-30T23:06:12.907Z,1.90
2019-01-30T23:08:52.020Z,1.90
2019-01-30T23:11:32.020Z,2.10
2019-01-30T23:14:11.964Z,2.10
2019-01-30T23:16:51.888Z,2.10
2019-01-30T23:19:31.054Z,2.00
2019-01-30T23:22:10.345Z,2.10
2019-01-30T23:24:49.390Z,2.10
2019-01-30T23:27:28.548Z,2.10
2019-01-30T23:30:07.741Z,2.10
2019-01-30T23:32:47.730Z,2.20
2019-01-30T23:35:27.948Z,2.20
2019-01-30T23:38:08.152Z,2.20
2019-01-30T23:40:47.241Z,2.20
2019-01-30T23:43:27.296Z,2.20
2019-01-30T23:46:07.374Z,2.10
2019-01-30T23:48:47.391Z,2.20
2019-01-30T23:51:27.434Z,2.30
2019-01-30T23:54:07.457Z,2.40
2019-01-30T23:56:47.567Z,2.30
2019-01-30T23:59:26.687Z,2.30
